<?xml version="1.0" encoding="UTF-8" standalone="no" ?>
<gpx xmlns="http://www.topografix.com/GPX/1/1" xmlns:xsi="http://www.w3.org/2001/XMLSchema-instance" xsi:schemaLocation="http://www.topografix.com/GPX/1/1 http://www.topografix.com/GPX/1/1/gpx.xsd" version="1.1" creator="VisuGPX - https://www.visugpx.com">
  <metadata>
    <name>carolles</name>
  </metadata>
  <trk>
    <name><![CDATA[8272062-Bretagne_02]]></name>
    <trkseg>
      <trkpt lat="48.74017" lon="-1.53827">
        <ele>67</ele>
        <time>2021-11-20T20:56:53Z</time>
      </trkpt>
      <trkpt lat="48.73935" lon="-1.53812">
        <ele>64</ele>
        <time>2021-11-20T20:57:59Z</time>
      </trkpt>
      <trkpt lat="48.73863" lon="-1.53636">
        <ele>63</ele>
        <time>2021-11-20T20:59:48Z</time>
      </trkpt>
      <trkpt lat="48.73811" lon="-1.53415">
        <ele>63</ele>
        <time>2021-11-20T21:01:52Z</time>
      </trkpt>
      <trkpt lat="48.73709" lon="-1.5336">
        <ele>67</ele>
        <time>2021-11-20T21:03:19Z</time>
      </trkpt>
      <trkpt lat="48.73571" lon="-1.53211">
        <ele>83</ele>
        <time>2021-11-20T21:05:35Z</time>
      </trkpt>
      <trkpt lat="48.73485" lon="-1.53166">
        <ele>84</ele>
        <time>2021-11-20T21:06:48Z</time>
      </trkpt>
      <trkpt lat="48.73448" lon="-1.52959">
        <ele>86</ele>
        <time>2021-11-20T21:08:41Z</time>
      </trkpt>
      <trkpt lat="48.73367" lon="-1.52859">
        <ele>86</ele>
        <time>2021-11-20T21:10:04Z</time>
      </trkpt>
      <trkpt lat="48.73321" lon="-1.52686">
        <ele>80</ele>
        <time>2021-11-20T21:11:43Z</time>
      </trkpt>
      <trkpt lat="48.73371" lon="-1.52343">
        <ele>87</ele>
        <time>2021-11-20T21:14:48Z</time>
      </trkpt>
      <trkpt lat="48.73321" lon="-1.52103">
        <ele>79</ele>
        <time>2021-11-20T21:17:01Z</time>
      </trkpt>
      <trkpt lat="48.73207" lon="-1.51784">
        <ele>67</ele>
        <time>2021-11-20T21:20:13Z</time>
      </trkpt>
      <trkpt lat="48.73178" lon="-1.51591">
        <ele>70</ele>
        <time>2021-11-20T21:21:58Z</time>
      </trkpt>
      <trkpt lat="48.73171" lon="-1.51424">
        <ele>58</ele>
        <time>2021-11-20T21:23:26Z</time>
      </trkpt>
      <trkpt lat="48.73242" lon="-1.513">
        <ele>61</ele>
        <time>2021-11-20T21:24:53Z</time>
      </trkpt>
      <trkpt lat="48.73237" lon="-1.51071">
        <ele>61</ele>
        <time>2021-11-20T21:26:54Z</time>
      </trkpt>
      <trkpt lat="48.73157" lon="-1.50945">
        <ele>51</ele>
        <time>2021-11-20T21:28:26Z</time>
      </trkpt>
      <trkpt lat="48.72998" lon="-1.50899">
        <ele>41</ele>
        <time>2021-11-20T21:30:36Z</time>
      </trkpt>
      <trkpt lat="48.72834" lon="-1.50857">
        <ele>29</ele>
        <time>2021-11-20T21:32:49Z</time>
      </trkpt>
      <trkpt lat="48.72772" lon="-1.5086">
        <ele>23</ele>
        <time>2021-11-20T21:33:38Z</time>
      </trkpt>
      <trkpt lat="48.72712" lon="-1.50826">
        <ele>22</ele>
        <time>2021-11-20T21:34:30Z</time>
      </trkpt>
      <trkpt lat="48.72626" lon="-1.50838">
        <ele>27</ele>
        <time>2021-11-20T21:35:39Z</time>
      </trkpt>
      <trkpt lat="48.72564" lon="-1.50781">
        <ele>31</ele>
        <time>2021-11-20T21:36:37Z</time>
      </trkpt>
      <trkpt lat="48.7239" lon="-1.50717">
        <ele>35</ele>
        <time>2021-11-20T21:39:00Z</time>
      </trkpt>
      <trkpt lat="48.72288" lon="-1.50344">
        <ele>46</ele>
        <time>2021-11-20T21:42:34Z</time>
      </trkpt>
      <trkpt lat="48.72352" lon="-1.50146">
        <ele>47</ele>
        <time>2021-11-20T21:44:30Z</time>
      </trkpt>
      <trkpt lat="48.72214" lon="-1.50037">
        <ele>46</ele>
        <time>2021-11-20T21:46:35Z</time>
      </trkpt>
      <trkpt lat="48.72095" lon="-1.50008">
        <ele>43</ele>
        <time>2021-11-20T21:48:11Z</time>
      </trkpt>
      <trkpt lat="48.72058" lon="-1.49955">
        <ele>43</ele>
        <time>2021-11-20T21:48:52Z</time>
      </trkpt>
      <trkpt lat="48.71973" lon="-1.50115">
        <ele>40</ele>
        <time>2021-11-20T21:50:40Z</time>
      </trkpt>
      <trkpt lat="48.71809" lon="-1.50271">
        <ele>39</ele>
        <time>2021-11-20T21:53:15Z</time>
      </trkpt>
      <trkpt lat="48.71853" lon="-1.50338">
        <ele>37</ele>
        <time>2021-11-20T21:54:05Z</time>
      </trkpt>
      <trkpt lat="48.71779" lon="-1.50583">
        <ele>34</ele>
        <time>2021-11-20T21:56:28Z</time>
      </trkpt>
      <trkpt lat="48.71695" lon="-1.50702">
        <ele>33</ele>
        <time>2021-11-20T21:58:00Z</time>
      </trkpt>
      <trkpt lat="48.71603" lon="-1.5069">
        <ele>23</ele>
        <time>2021-11-20T21:59:14Z</time>
      </trkpt>
      <trkpt lat="48.71563" lon="-1.50863">
        <ele>15</ele>
        <time>2021-11-20T22:00:51Z</time>
      </trkpt>
      <trkpt lat="48.71487" lon="-1.5079">
        <ele>9</ele>
        <time>2021-11-20T22:02:03Z</time>
      </trkpt>
      <trkpt lat="48.71393" lon="-1.50532">
        <ele>14</ele>
        <time>2021-11-20T22:04:38Z</time>
      </trkpt>
      <trkpt lat="48.71239" lon="-1.50492">
        <ele>14</ele>
        <time>2021-11-20T22:06:43Z</time>
      </trkpt>
      <trkpt lat="48.71111" lon="-1.50565">
        <ele>13</ele>
        <time>2021-11-20T22:08:33Z</time>
      </trkpt>
      <trkpt lat="48.71018" lon="-1.50948">
        <ele>7</ele>
        <time>2021-11-20T22:12:09Z</time>
      </trkpt>
      <trkpt lat="48.70738" lon="-1.50847">
        <ele>8</ele>
        <time>2021-11-20T22:15:59Z</time>
      </trkpt>
      <trkpt lat="48.70532" lon="-1.50847">
        <ele>8</ele>
        <time>2021-11-20T22:18:44Z</time>
      </trkpt>
      <trkpt lat="48.70153" lon="-1.50784">
        <ele>8</ele>
        <time>2021-11-20T22:23:49Z</time>
      </trkpt>
      <trkpt lat="48.69873" lon="-1.50577">
        <ele>7</ele>
        <time>2021-11-20T22:27:59Z</time>
      </trkpt>
      <trkpt lat="48.6941" lon="-1.50338">
        <ele>6</ele>
        <time>2021-11-20T22:34:30Z</time>
      </trkpt>
      <trkpt lat="48.6929" lon="-1.50204">
        <ele>9</ele>
        <time>2021-11-20T22:36:30Z</time>
      </trkpt>
      <trkpt lat="48.69192" lon="-1.50517">
        <ele>10</ele>
        <time>2021-11-20T22:39:33Z</time>
      </trkpt>
      <trkpt lat="48.69126" lon="-1.50495">
        <ele>9</ele>
        <time>2021-11-20T22:40:27Z</time>
      </trkpt>
      <trkpt lat="48.69006" lon="-1.50386">
        <ele>9</ele>
        <time>2021-11-20T22:42:19Z</time>
      </trkpt>
      <trkpt lat="48.68647" lon="-1.50231">
        <ele>8</ele>
        <time>2021-11-20T22:47:18Z</time>
      </trkpt>
      <trkpt lat="48.68583" lon="-1.50095">
        <ele>9</ele>
        <time>2021-11-20T22:48:46Z</time>
      </trkpt>
      <trkpt lat="48.68495" lon="-1.5001">
        <ele>9</ele>
        <time>2021-11-20T22:50:10Z</time>
      </trkpt>
      <trkpt lat="48.68399" lon="-1.4984">
        <ele>7</ele>
        <time>2021-11-20T22:52:08Z</time>
      </trkpt>
      <trkpt lat="48.6836" lon="-1.49691">
        <ele>7</ele>
        <time>2021-11-20T22:53:33Z</time>
      </trkpt>
      <trkpt lat="48.68369" lon="-1.49594">
        <ele>7</ele>
        <time>2021-11-20T22:54:24Z</time>
      </trkpt>
      <trkpt lat="48.68379" lon="-1.49421">
        <ele>6</ele>
        <time>2021-11-20T22:55:56Z</time>
      </trkpt>
      <trkpt lat="48.68373" lon="-1.49233">
        <ele>5</ele>
        <time>2021-11-20T22:57:36Z</time>
      </trkpt>
      <trkpt lat="48.68399" lon="-1.49063">
        <ele>6</ele>
        <time>2021-11-20T22:59:08Z</time>
      </trkpt>
      <trkpt lat="48.68409" lon="-1.48814">
        <ele>6</ele>
        <time>2021-11-20T23:01:20Z</time>
      </trkpt>
      <trkpt lat="48.68509" lon="-1.48675">
        <ele>6</ele>
        <time>2021-11-20T23:03:08Z</time>
      </trkpt>
      <trkpt lat="48.68603" lon="-1.48705">
        <ele>7</ele>
        <time>2021-11-20T23:04:25Z</time>
      </trkpt>
      <trkpt lat="48.68627" lon="-1.48578">
        <ele>8</ele>
        <time>2021-11-20T23:05:35Z</time>
      </trkpt>
      <trkpt lat="48.68531" lon="-1.48374">
        <ele>7</ele>
        <time>2021-11-20T23:07:48Z</time>
      </trkpt>
      <trkpt lat="48.68529" lon="-1.48292">
        <ele>8</ele>
        <time>2021-11-20T23:08:31Z</time>
      </trkpt>
      <trkpt lat="48.68433" lon="-1.48116">
        <ele>9</ele>
        <time>2021-11-20T23:10:32Z</time>
      </trkpt>
      <trkpt lat="48.68416" lon="-1.47943">
        <ele>8</ele>
        <time>2021-11-20T23:12:04Z</time>
      </trkpt>
      <trkpt lat="48.68448" lon="-1.47805">
        <ele>10</ele>
        <time>2021-11-20T23:13:21Z</time>
      </trkpt>
      <trkpt lat="48.68359" lon="-1.4789">
        <ele>8</ele>
        <time>2021-11-20T23:14:46Z</time>
      </trkpt>
      <trkpt lat="48.68253" lon="-1.47717">
        <ele>8</ele>
        <time>2021-11-20T23:16:50Z</time>
      </trkpt>
      <trkpt lat="48.6816" lon="-1.47513">
        <ele>8</ele>
        <time>2021-11-20T23:19:02Z</time>
      </trkpt>
      <trkpt lat="48.68186" lon="-1.47421">
        <ele>9</ele>
        <time>2021-11-20T23:19:54Z</time>
      </trkpt>
      <trkpt lat="48.68142" lon="-1.47264">
        <ele>8</ele>
        <time>2021-11-20T23:21:25Z</time>
      </trkpt>
      <trkpt lat="48.68052" lon="-1.47098">
        <ele>8</ele>
        <time>2021-11-20T23:23:18Z</time>
      </trkpt>
      <trkpt lat="48.68074" lon="-1.46683">
        <ele>12</ele>
        <time>2021-11-20T23:26:58Z</time>
      </trkpt>
      <trkpt lat="48.68018" lon="-1.46602">
        <ele>13</ele>
        <time>2021-11-20T23:28:00Z</time>
      </trkpt>
      <trkpt lat="48.6791" lon="-1.46493">
        <ele>13</ele>
        <time>2021-11-20T23:29:44Z</time>
      </trkpt>
      <trkpt lat="48.67771" lon="-1.46293">
        <ele>20</ele>
        <time>2021-11-20T23:32:18Z</time>
      </trkpt>
      <trkpt lat="48.67663" lon="-1.46353">
        <ele>20</ele>
        <time>2021-11-20T23:33:50Z</time>
      </trkpt>
      <trkpt lat="48.67485" lon="-1.46174">
        <ele>12</ele>
        <time>2021-11-20T23:36:41Z</time>
      </trkpt>
      <trkpt lat="48.67425" lon="-1.46113">
        <ele>10</ele>
        <time>2021-11-20T23:37:39Z</time>
      </trkpt>
      <trkpt lat="48.67393" lon="-1.45968">
        <ele>7</ele>
        <time>2021-11-20T23:39:00Z</time>
      </trkpt>
      <trkpt lat="48.67343" lon="-1.4571">
        <ele>7</ele>
        <time>2021-11-20T23:41:22Z</time>
      </trkpt>
      <trkpt lat="48.6722" lon="-1.45431">
        <ele>7</ele>
        <time>2021-11-20T23:44:19Z</time>
      </trkpt>
      <trkpt lat="48.67148" lon="-1.45276">
        <ele>7</ele>
        <time>2021-11-20T23:45:59Z</time>
      </trkpt>
      <trkpt lat="48.67086" lon="-1.45121">
        <ele>8</ele>
        <time>2021-11-20T23:47:35Z</time>
      </trkpt>
      <trkpt lat="48.67004" lon="-1.44954">
        <ele>9</ele>
        <time>2021-11-20T23:49:25Z</time>
      </trkpt>
      <trkpt lat="48.668" lon="-1.44818">
        <ele>7</ele>
        <time>2021-11-20T23:52:24Z</time>
      </trkpt>
      <trkpt lat="48.66695" lon="-1.4479">
        <ele>7</ele>
        <time>2021-11-20T23:53:49Z</time>
      </trkpt>
      <trkpt lat="48.66721" lon="-1.44715">
        <ele>9</ele>
        <time>2021-11-20T23:54:34Z</time>
      </trkpt>
      <trkpt lat="48.66427" lon="-1.44575">
        <ele>8</ele>
        <time>2021-11-20T23:58:41Z</time>
      </trkpt>
      <trkpt lat="48.66327" lon="-1.44554">
        <ele>10</ele>
        <time>2021-11-21T00:00:01Z</time>
      </trkpt>
      <trkpt lat="48.659" lon="-1.44605">
        <ele>20</ele>
        <time>2021-11-21T00:05:44Z</time>
      </trkpt>
      <trkpt lat="48.65661" lon="-1.44508">
        <ele>18</ele>
        <time>2021-11-21T00:09:02Z</time>
      </trkpt>
      <trkpt lat="48.65629" lon="-1.44429">
        <ele>17</ele>
        <time>2021-11-21T00:09:51Z</time>
      </trkpt>
      <trkpt lat="48.65635" lon="-1.44332">
        <ele>18</ele>
        <time>2021-11-21T00:10:43Z</time>
      </trkpt>
      <trkpt lat="48.65765" lon="-1.44068">
        <ele>18</ele>
        <time>2021-11-21T00:13:37Z</time>
      </trkpt>
      <trkpt lat="48.65721" lon="-1.43844">
        <ele>9</ele>
        <time>2021-11-21T00:15:41Z</time>
      </trkpt>
      <trkpt lat="48.65996" lon="-1.43707">
        <ele>7</ele>
        <time>2021-11-21T00:19:33Z</time>
      </trkpt>
      <trkpt lat="48.6613" lon="-1.4371">
        <ele>8</ele>
        <time>2021-11-21T00:21:20Z</time>
      </trkpt>
      <trkpt lat="48.66343" lon="-1.43583">
        <ele>8</ele>
        <time>2021-11-21T00:24:23Z</time>
      </trkpt>
      <trkpt lat="48.66545" lon="-1.43388">
        <ele>8</ele>
        <time>2021-11-21T00:27:35Z</time>
      </trkpt>
      <trkpt lat="48.66655" lon="-1.43222">
        <ele>7</ele>
        <time>2021-11-21T00:29:39Z</time>
      </trkpt>
      <trkpt lat="48.66711" lon="-1.42912">
        <ele>7</ele>
        <time>2021-11-21T00:32:29Z</time>
      </trkpt>
      <trkpt lat="48.66687" lon="-1.42797">
        <ele>6</ele>
        <time>2021-11-21T00:33:33Z</time>
      </trkpt>
      <trkpt lat="48.66701" lon="-1.42709">
        <ele>6</ele>
        <time>2021-11-21T00:34:21Z</time>
      </trkpt>
      <trkpt lat="48.66637" lon="-1.42578">
        <ele>7</ele>
        <time>2021-11-21T00:35:47Z</time>
      </trkpt>
      <trkpt lat="48.66613" lon="-1.42478">
        <ele>7</ele>
        <time>2021-11-21T00:36:43Z</time>
      </trkpt>
      <trkpt lat="48.66657" lon="-1.42384">
        <ele>6</ele>
        <time>2021-11-21T00:37:44Z</time>
      </trkpt>
      <trkpt lat="48.66864" lon="-1.42263">
        <ele>8</ele>
        <time>2021-11-21T00:40:42Z</time>
      </trkpt>
      <trkpt lat="48.66998" lon="-1.41938">
        <ele>8</ele>
        <time>2021-11-21T00:44:05Z</time>
      </trkpt>
      <trkpt lat="48.67044" lon="-1.41504">
        <ele>8</ele>
        <time>2021-11-21T00:47:57Z</time>
      </trkpt>
      <trkpt lat="48.67112" lon="-1.41176">
        <ele>8</ele>
        <time>2021-11-21T00:50:59Z</time>
      </trkpt>
      <trkpt lat="48.6727" lon="-1.40788">
        <ele>9</ele>
        <time>2021-11-21T00:55:00Z</time>
      </trkpt>
      <trkpt lat="48.67335" lon="-1.40466">
        <ele>8</ele>
        <time>2021-11-21T00:57:58Z</time>
      </trkpt>
      <trkpt lat="48.67361" lon="-1.40251">
        <ele>9</ele>
        <time>2021-11-21T00:59:53Z</time>
      </trkpt>
      <trkpt lat="48.67435" lon="-1.4005">
        <ele>7</ele>
        <time>2021-11-21T01:01:55Z</time>
      </trkpt>
      <trkpt lat="48.67641" lon="-1.39884">
        <ele>9</ele>
        <time>2021-11-21T01:05:02Z</time>
      </trkpt>
      <trkpt lat="48.67701" lon="-1.39668">
        <ele>6</ele>
        <time>2021-11-21T01:07:06Z</time>
      </trkpt>
      <trkpt lat="48.67862" lon="-1.39222">
        <ele>7</ele>
        <time>2021-11-21T01:11:34Z</time>
      </trkpt>
      <trkpt lat="48.67942" lon="-1.38976">
        <ele>8</ele>
        <time>2021-11-21T01:13:59Z</time>
      </trkpt>
      <trkpt lat="48.68268" lon="-1.38688">
        <ele>8</ele>
        <time>2021-11-21T01:19:02Z</time>
      </trkpt>
      <trkpt lat="48.68288" lon="-1.38491">
        <ele>7</ele>
        <time>2021-11-21T01:20:47Z</time>
      </trkpt>
      <trkpt lat="48.68649" lon="-1.38014">
        <ele>7</ele>
        <time>2021-11-21T01:27:11Z</time>
      </trkpt>
      <trkpt lat="48.68691" lon="-1.37941">
        <ele>7</ele>
        <time>2021-11-21T01:28:02Z</time>
      </trkpt>
      <trkpt lat="48.68659" lon="-1.37538">
        <ele>10</ele>
        <time>2021-11-21T01:31:36Z</time>
      </trkpt>
      <trkpt lat="48.68435" lon="-1.37614">
        <ele>9</ele>
        <time>2021-11-21T01:34:40Z</time>
      </trkpt>
      <trkpt lat="48.68256" lon="-1.37866">
        <ele>10</ele>
        <time>2021-11-21T01:37:56Z</time>
      </trkpt>
      <trkpt lat="48.68198" lon="-1.38035">
        <ele>9</ele>
        <time>2021-11-21T01:39:36Z</time>
      </trkpt>
      <trkpt lat="48.68254" lon="-1.38126">
        <ele>8</ele>
        <time>2021-11-21T01:40:42Z</time>
      </trkpt>
      <trkpt lat="48.68028" lon="-1.38254">
        <ele>6</ele>
        <time>2021-11-21T01:43:55Z</time>
      </trkpt>
      <trkpt lat="48.67968" lon="-1.38342">
        <ele>7</ele>
        <time>2021-11-21T01:45:02Z</time>
      </trkpt>
      <trkpt lat="48.67645" lon="-1.38548">
        <ele>8</ele>
        <time>2021-11-21T01:49:43Z</time>
      </trkpt>
      <trkpt lat="48.67461" lon="-1.38655">
        <ele>7</ele>
        <time>2021-11-21T01:52:21Z</time>
      </trkpt>
      <trkpt lat="48.67291" lon="-1.38664">
        <ele>9</ele>
        <time>2021-11-21T01:54:37Z</time>
      </trkpt>
      <trkpt lat="48.67018" lon="-1.38919">
        <ele>7</ele>
        <time>2021-11-21T01:58:54Z</time>
      </trkpt>
      <trkpt lat="48.66808" lon="-1.39289">
        <ele>8</ele>
        <time>2021-11-21T02:03:12Z</time>
      </trkpt>
      <trkpt lat="48.66711" lon="-1.39453">
        <ele>8</ele>
        <time>2021-11-21T02:05:08Z</time>
      </trkpt>
      <trkpt lat="48.66457" lon="-1.39717">
        <ele>10</ele>
        <time>2021-11-21T02:09:15Z</time>
      </trkpt>
      <trkpt lat="48.66387" lon="-1.39817">
        <ele>9</ele>
        <time>2021-11-21T02:10:32Z</time>
      </trkpt>
      <trkpt lat="48.66307" lon="-1.39871">
        <ele>7</ele>
        <time>2021-11-21T02:11:42Z</time>
      </trkpt>
      <trkpt lat="48.66152" lon="-1.39947">
        <ele>8</ele>
        <time>2021-11-21T02:13:52Z</time>
      </trkpt>
      <trkpt lat="48.6611" lon="-1.39917">
        <ele>9</ele>
        <time>2021-11-21T02:14:30Z</time>
      </trkpt>
      <trkpt lat="48.65992" lon="-1.40026">
        <ele>7</ele>
        <time>2021-11-21T02:16:20Z</time>
      </trkpt>
      <trkpt lat="48.65882" lon="-1.40053">
        <ele>7</ele>
        <time>2021-11-21T02:17:49Z</time>
      </trkpt>
      <trkpt lat="48.65687" lon="-1.39972">
        <ele>7</ele>
        <time>2021-11-21T02:20:31Z</time>
      </trkpt>
      <trkpt lat="48.65473" lon="-1.3988">
        <ele>8</ele>
        <time>2021-11-21T02:23:30Z</time>
      </trkpt>
      <trkpt lat="48.65132" lon="-1.39428">
        <ele>9</ele>
        <time>2021-11-21T02:29:32Z</time>
      </trkpt>
      <trkpt lat="48.65396" lon="-1.39104">
        <ele>13</ele>
        <time>2021-11-21T02:34:05Z</time>
      </trkpt>
      <trkpt lat="48.65617" lon="-1.38925">
        <ele>14</ele>
        <time>2021-11-21T02:37:25Z</time>
      </trkpt>
      <trkpt lat="48.65575" lon="-1.38785">
        <ele>12</ele>
        <time>2021-11-21T02:38:47Z</time>
      </trkpt>
    </trkseg>
  </trk>
</gpx>